Time;durP1;ratioP1;P1;durP2;ratioP2;P2;SDS_P1;SDS_P2;PMS_P1;PMS_P2;Temp;Humidity;BMP_temperature;BMP_pressure;BME280_temperature;BME280_humidity;BME280_pressure;Samples;Min_cycle;Max_cycle;Signal;HPM_P1;HPM_P2
2023/07/23 00:02:04;;;;;;;6.65;4.43;;;;;;;;;;4878035;29;20120;-87
2023/07/23 00:04:31;;;;;;;8.02;4.72;;;;;;;;;;4857128;29;20063;-86
2023/07/23 00:06:57;;;;;;;7.13;4.13;;;;;;;;;;4875609;29;20033;-86
2023/07/23 00:09:23;;;;;;;9.15;4.20;;;;;;;;;;4859420;29;20033;-88
2023/07/23 00:11:49;;;;;;;9.75;4.53;;;;;;;;;;4855324;29;20050;-84
2023/07/23 00:14:15;;;;;;;8.02;4.70;;;;;;;;;;4855670;29;20067;-85
2023/07/23 00:16:41;;;;;;;11.32;4.50;;;;;;;;;;4855080;29;20053;-84
2023/07/23 00:19:07;;;;;;;8.05;4.72;;;;;;;;;;4853313;29;20928;-86
2023/07/23 00:21:36;;;;;;;11.93;5.15;;;;;;;;;;4863269;29;20112;-87
2023/07/23 00:24:04;;;;;;;7.93;4.60;;;;;;;;;;4869017;29;20042;-87
2023/07/23 00:26:30;;;;;;;6.15;4.35;;;;;;;;;;4852506;29;20049;-87
2023/07/23 00:28:56;;;;;;;6.53;4.20;;;;;;;;;;4867827;29;20478;-88
2023/07/23 00:31:22;;;;;;;6.88;4.47;;;;;;;;;;4864241;29;20041;-88
2023/07/23 00:33:48;;;;;;;6.15;4.20;;;;;;;;;;4846634;29;20481;-85
2023/07/23 00:36:14;;;;;;;9.18;4.88;;;;;;;;;;4852527;29;20038;-86
2023/07/23 00:38:40;;;;;;;10.18;4.32;;;;;;;;;;4844737;29;20018;-89
2023/07/23 00:41:06;;;;;;;8.23;4.50;;;;;;;;;;4849948;29;20026;-87
2023/07/23 00:43:32;;;;;;;12.52;4.57;;;;;;;;;;4844595;29;20030;-87
2023/07/23 00:45:58;;;;;;;8.40;4.75;;;;;;;;;;4843148;29;20038;-86
2023/07/23 00:48:24;;;;;;;12.07;4.28;;;;;;;;;;4851427;29;20421;-87
2023/07/23 00:50:50;;;;;;;11.07;4.78;;;;;;;;;;4851112;29;20034;-86
2023/07/23 00:53:17;;;;;;;7.38;4.93;;;;;;;;;;4853725;29;20033;-87
2023/07/23 00:55:43;;;;;;;8.50;4.35;;;;;;;;;;4846454;29;20026;-87
2023/07/23 00:58:09;;;;;;;8.57;4.28;;;;;;;;;;4847238;29;20042;-87
2023/07/23 01:00:35;;;;;;;9.18;4.45;;;;;;;;;;4850175;29;20516;-88
2023/07/23 01:03:01;;;;;;;11.23;4.50;;;;;;;;;;4849271;29;20034;-86
2023/07/23 01:05:27;;;;;;;5.80;3.83;;;;;;;;;;4849053;29;20103;-87
2023/07/23 01:07:53;;;;;;;7.18;4.28;;;;;;;;;;4851185;29;20121;-85
2023/07/23 01:10:20;;;;;;;9.15;4.30;;;18.10;99.90;;;;;;4848301;29;20038;-87
2023/07/23 01:12:46;;;;;;;7.13;4.20;;;;;;;;;;4847490;29;20098;-86
2023/07/23 01:15:12;;;;;;;5.90;4.00;;;;;;;;;;4847727;29;20042;-87
2023/07/23 01:17:39;;;;;;;7.05;4.20;;;17.90;99.90;;;;;;4847488;29;20033;-86
2023/07/23 01:20:06;;;;;;;7.88;4.40;;;;;;;;;;4838793;29;20061;-86
2023/07/23 01:22:33;;;;;;;7.40;4.57;;;17.90;99.90;;;;;;4864663;29;20067;-83
2023/07/23 01:24:59;;;;;;;5.65;3.92;;;;;;;;;;4867051;29;20018;-86
2023/07/23 01:27:25;;;;;;;7.05;4.43;;;;;;;;;;4864836;29;20064;-87
2023/07/23 01:29:51;;;;;;;7.03;4.55;;;;;;;;;;4855305;29;20186;-87
2023/07/23 01:32:17;;;;;;;7.72;3.95;;;;;;;;;;4847680;29;20642;-83
2023/07/23 01:34:43;;;;;;;9.52;4.68;;;;;;;;;;4846586;29;20068;-86
2023/07/23 01:37:10;;;;;;;8.85;4.13;;;;;;;;;;4846065;29;20128;-86
2023/07/23 01:39:36;;;;;;;8.25;4.10;;;;;;;;;;4848983;29;20033;-86
2023/07/23 01:42:03;;;;;;;9.30;4.03;;;;;;;;;;4847061;29;20069;-85
2023/07/23 01:44:29;;;;;;;8.43;4.05;;;;;;;;;;4830793;29;20095;-86
2023/07/23 01:46:55;;;;;;;8.48;4.38;;;;;;;;;;4858610;29;20034;-85
2023/07/23 01:49:21;;;;;;;5.70;4.10;;;;;;;;;;4846741;29;20030;-86
2023/07/23 01:51:50;;;;;;;8.40;3.72;;;17.80;99.90;;;;;;4844022;29;20035;-87
2023/07/23 01:54:16;;;;;;;7.13;3.97;;;;;;;;;;4861306;29;20034;-88
2023/07/23 01:56:42;;;;;;;6.97;3.80;;;;;;;;;;4840523;29;20034;-87
2023/07/23 01:59:08;;;;;;;6.30;3.90;;;;;;;;;;4859314;29;20030;-87
2023/07/23 02:01:34;;;;;;;5.93;4.05;;;;;;;;;;4841881;29;20026;-87
2023/07/23 02:04:02;;;;;;;8.32;4.72;;;;;;;;;;4844865;29;20105;-85
2023/07/23 02:06:28;;;;;;;8.13;4.45;;;;;;;;;;4845866;29;21422;-88
2023/07/23 02:08:54;;;;;;;7.80;4.60;;;;;;;;;;4845291;29;20030;-87
2023/07/23 02:11:20;;;;;;;6.95;3.95;;;;;;;;;;4845242;29;20075;-88
2023/07/23 02:13:46;;;;;;;6.18;3.92;;;;;;;;;;4843610;29;20113;-87
2023/07/23 02:16:16;;;;;;;6.13;3.67;;;17.50;99.90;;;;;;4841744;29;20488;-87
2023/07/23 02:18:43;;;;;;;7.57;3.92;;;17.60;99.90;;;;;;4849941;29;20059;-87
2023/07/23 02:21:09;;;;;;;6.43;3.60;;;;;;;;;;4842392;29;20116;-88
2023/07/23 02:23:35;;;;;;;5.53;3.75;;;;;;;;;;4840356;29;20037;-88
2023/07/23 02:26:01;;;;;;;6.18;4.32;;;;;;;;;;4844979;29;20030;-89
2023/07/23 02:28:27;;;;;;;6.70;3.50;;;;;;;;;;4845376;29;20034;-88
2023/07/23 02:30:57;;;;;;;6.32;3.03;;;17.80;99.90;;;;;;4844724;29;20117;-87
2023/07/23 02:33:23;;;;;;;7.95;4.00;;;;;;;;;;4839361;29;20030;-88
2023/07/23 02:35:49;;;;;;;6.25;3.00;;;17.80;99.90;;;;;;4845860;29;20033;-86
2023/07/23 02:38:15;;;;;;;4.57;3.25;;;;;;;;;;4843846;29;20037;-89
2023/07/23 02:40:41;;;;;;;5.25;3.30;;;;;;;;;;4853567;29;20300;-88
2023/07/23 02:43:11;;;;;;;7.05;3.83;;;;;;;;;;4868041;29;20493;-87
2023/07/23 02:45:38;;;;;;;9.48;4.20;;;;;;;;;;4845173;29;20030;-87
2023/07/23 02:48:04;;;;;;;7.43;4.00;;;;;;;;;;4844325;29;20042;-86
2023/07/23 02:50:30;;;;;;;6.68;3.65;;;;;;;;;;4839630;29;20121;-87
2023/07/23 02:52:55;;;;;;;6.10;3.97;;;;;;;;;;4841756;29;20064;-86
2023/07/23 02:55:24;;;;;;;7.07;3.63;;;;;;;;;;4860677;29;20037;-88
2023/07/23 02:57:51;;;;;;;6.47;3.75;;;;;;;;;;4845366;29;20037;-87
2023/07/23 03:00:18;;;;;;;6.60;3.53;;;;;;;;;;4845640;29;20123;-87
2023/07/23 03:02:46;;;;;;;7.90;3.58;;;17.70;99.90;;;;;;4844231;29;20033;-87
2023/07/23 03:05:12;;;;;;;7.85;3.90;;;;;;;;;;4845060;29;20034;-86
2023/07/23 03:07:38;;;;;;;6.38;3.53;;;;;;;;;;4842403;29;20038;-87
2023/07/23 03:10:04;;;;;;;7.78;4.18;;;;;;;;;;4844512;29;20061;-85
2023/07/23 03:12:34;;;;;;;5.63;3.78;;;17.60;99.90;;;;;;4848256;29;20091;-85
2023/07/23 03:15:00;;;;;;;6.17;3.17;;;;;;;;;;4850759;29;20469;-85
2023/07/23 03:17:26;;;;;;;7.25;3.40;;;;;;;;;;4843133;29;20505;-86
2023/07/23 03:19:52;;;;;;;5.15;3.38;;;;;;;;;;4845280;29;20120;-87
2023/07/23 03:22:19;;;;;;;7.72;3.38;;;;;;;;;;4844621;29;20380;-88
2023/07/23 03:24:45;;;;;;;6.68;3.78;;;17.60;99.90;;;;;;4859059;29;20108;-88
2023/07/23 03:27:11;;;;;;;7.20;3.63;;;;;;;;;;4846899;29;20037;-84
2023/07/23 03:29:37;;;;;;;5.57;3.22;;;;;;;;;;4843384;29;20063;-86
2023/07/23 03:32:03;;;;;;;5.25;3.45;;;;;;;;;;4857367;29;20025;-87
2023/07/23 03:34:30;;;;;;;5.03;3.30;;;17.70;99.90;;;;;;4839585;29;20116;-87
2023/07/23 03:36:56;;;;;;;7.07;3.40;;;;;;;;;;4860280;29;20029;-86
2023/07/23 03:39:22;;;;;;;7.75;3.33;;;;;;;;;;4859308;29;20620;-86
2023/07/23 03:41:49;;;;;;;7.63;3.58;;;;;;;;;;4840215;29;20031;-87
2023/07/23 03:44:15;;;;;;;7.22;3.67;;;;;;;;;;4845743;29;20033;-87
2023/07/23 03:46:45;;;;;;;5.60;3.33;;;;;;;;;;4859512;29;20030;-86
2023/07/23 03:49:12;;;;;;;7.05;3.67;;;;;;;;;;4848409;29;20064;-86
2023/07/23 03:51:38;;;;;;;10.00;3.35;;;;;;;;;;4850600;29;20045;-85
2023/07/23 03:54:04;;;;;;;7.28;3.05;;;;;;;;;;4846739;29;20038;-87
2023/07/23 03:56:30;;;;;;;7.95;3.05;;;;;;;;;;4848982;29;20388;-86
2023/07/23 03:58:56;;;;;;;5.90;3.30;;;;;;;;;;4844686;29;20034;-87
2023/07/23 04:01:22;;;;;;;5.65;3.03;;;;;;;;;;4846527;29;20045;-86
2023/07/23 04:03:48;;;;;;;6.13;3.20;;;;;;;;;;4844535;29;20038;-85
2023/07/23 04:06:13;;;;;;;6.32;3.13;;;;;;;;;;4862226;29;20017;-86
2023/07/23 04:08:39;;;;;;;5.70;3.25;;;;;;;;;;4862641;29;20025;-87
2023/07/23 04:11:07;;;;;;;5.90;3.28;;;;;;;;;;4863073;29;20066;-85
2023/07/23 04:13:33;;;;;;;6.22;2.42;;;;;;;;;;4857636;29;20303;-88
2023/07/23 04:16:01;;;;;;;8.10;3.30;;;;;;;;;;4846165;29;20026;-85
2023/07/23 04:18:48;;;;;;;5.07;2.47;;;18.00;99.90;;;;;;4846948;29;20460;-88
2023/07/23 04:21:14;;;;;;;6.35;2.80;;;;;;;;;;4844804;29;20052;-87
2023/07/23 04:23:40;;;;;;;6.18;2.60;;;;;;;;;;4848444;29;20025;-85
2023/07/23 04:26:06;;;;;;;6.15;2.70;;;;;;;;;;4842847;29;20038;-85
2023/07/23 04:28:32;;;;;;;7.30;2.80;;;;;;;;;;4846218;29;20030;-87
2023/07/23 04:30:58;;;;;;;4.57;2.33;;;;;;;;;;4846653;29;20038;-86
2023/07/23 04:33:24;;;;;;;6.53;2.60;;;;;;;;;;4846633;29;20038;-88
2023/07/23 04:35:50;;;;;;;4.03;2.42;;;;;;;;;;4847713;29;20112;-87
2023/07/23 04:38:16;;;;;;;4.50;2.75;;;;;;;;;;4846964;29;20050;-87
2023/07/23 04:40:42;;;;;;;4.85;2.45;;;;;;;;;;4848280;29;20053;-85
2023/07/23 04:43:08;;;;;;;9.63;2.80;;;;;;;;;;4850697;29;20034;-87
2023/07/23 04:45:34;;;;;;;6.22;2.42;;;;;;;;;;4867486;29;20490;-86
2023/07/23 04:48:00;;;;;;;7.50;2.50;;;;;;;;;;4849701;29;20117;-86
2023/07/23 04:50:26;;;;;;;4.28;2.50;;;;;;;;;;4850180;29;20029;-86
2023/07/23 04:52:52;;;;;;;4.00;2.30;;;;;;;;;;4830927;29;20042;-87
2023/07/23 04:55:18;;;;;;;6.13;2.78;;;;;;;;;;4855683;29;20069;-85
2023/07/23 04:57:43;;;;;;;7.20;2.90;;;18.10;99.90;;;;;;4861403;29;20044;-87
2023/07/23 05:00:09;;;;;;;6.65;3.45;;;18.20;99.90;;;;;;4876401;29;20040;-88
2023/07/23 05:02:35;;;;;;;4.72;2.72;;;;;;;;;;4863244;29;20117;-89
2023/07/23 05:05:01;;;;;;;6.75;2.55;;;;;;;;;;4856368;29;20038;-86
2023/07/23 05:07:27;;;;;;;4.82;2.65;;;;;;;;;;4849798;29;20070;-86
2023/07/23 05:09:53;;;;;;;5.05;2.83;;;;;;;;;;4848512;29;20494;-89
2023/07/23 05:12:19;;;;;;;5.57;2.55;;;;;;;;;;4855599;29;20038;-89
2023/07/23 05:14:47;;;;;;;4.35;2.90;;;18.20;99.90;;;;;;4848522;29;20022;-88
2023/07/23 05:17:13;;;;;;;4.82;2.70;;;;;;;;;;4850614;29;20037;-87
2023/07/23 05:19:40;;;;;;;3.70;2.20;;;18.20;99.90;;;;;;4861969;29;20033;-87
2023/07/23 05:24:42;;;;;;;5.00;2.50;;;;;;;;;;4902103;23;20033;-85
2023/07/23 05:27:08;;;;;;;4.65;2.20;;;;;;;;;;4884176;29;20033;-84
2023/07/23 05:29:40;;;;;;;7.07;2.55;;;;;;;;;;4890715;29;20126;-84
2023/07/23 05:32:06;;;;;;;4.40;2.30;;;;;;;;;;4886532;29;20011;-87
2023/07/23 05:34:34;;;;;;;3.75;2.28;;;;;;;;;;4883204;29;20009;-84
2023/07/23 05:37:00;;;;;;;5.32;2.47;;;;;;;;;;4887440;29;20046;-85
2023/07/23 05:39:26;;;;;;;4.88;2.45;;;;;;;;;;4887189;29;20042;-86
2023/07/23 05:41:52;;;;;;;6.28;2.10;;;;;;;;;;4887486;29;20022;-84
2023/07/23 05:44:20;;;;;;;5.13;2.40;;;;;;;;;;4887857;29;20040;-83
2023/07/23 05:46:49;;;;;;;4.63;2.42;;;;;;;;;;4887011;29;20017;-84
2023/07/23 05:49:15;;;;;;;4.40;2.50;;;;;;;;;;4883156;29;20014;-85
2023/07/23 05:51:42;;;;;;;4.75;2.13;;;;;;;;;;4884476;29;20033;-85
2023/07/23 05:54:12;;;;;;;5.70;2.50;;;;;;;;;;4901901;29;20085;-85
2023/07/23 05:56:40;;;;;;;5.38;2.30;;;;;;;;;;4886498;29;20026;-84
2023/07/23 05:59:06;;;;;;;6.13;2.40;;;;;;;;;;4886842;29;20037;-85
2023/07/23 06:01:32;;;;;;;6.40;2.80;;;;;;;;;;4883600;29;20033;-83
2023/07/23 06:03:58;;;;;;;3.67;2.33;;;;;;;;;;4896669;29;20037;-86
2023/07/23 06:06:24;;;;;;;4.15;2.67;;;;;;;;;;4884867;29;20046;-86
2023/07/23 06:08:51;;;;;;;5.80;2.53;;;;;;;;;;4879977;29;20017;-84
2023/07/23 06:11:18;;;;;;;5.82;2.50;;;;;;;;;;4885938;29;20038;-85
2023/07/23 06:13:44;;;;;;;3.25;2.40;;;;;;;;;;4879819;29;20013;-85
2023/07/23 06:16:10;;;;;;;3.70;2.40;;;;;;;;;;4881718;29;20024;-85
2023/07/23 06:18:38;;;;;;;4.20;2.30;;;;;;;;;;4882711;29;20029;-84
2023/07/23 06:21:04;;;;;;;3.85;2.40;;;;;;;;;;4879623;29;20033;-85
2023/07/23 06:23:32;;;;;;;5.10;2.20;;;;;;;;;;4889225;29;20021;-88
2023/07/23 06:25:58;;;;;;;5.50;2.22;;;;;;;;;;4882533;29;20038;-83
2023/07/23 06:28:24;;;;;;;3.60;2.20;;;;;;;;;;4873087;29;20036;-84
2023/07/23 06:30:51;;;;;;;3.70;2.22;;;;;;;;;;4885873;29;20040;-83
2023/07/23 06:33:17;;;;;;;5.53;2.50;;;;;;;;;;4884087;29;20089;-82
2023/07/23 06:35:44;;;;;;;3.30;1.73;;;;;;;;;;4872703;29;20037;-82
2023/07/23 06:38:10;;;;;;;3.45;1.90;;;;;;;;;;4892899;29;20033;-82
2023/07/23 06:40:36;;;;;;;4.80;1.98;;;;;;;;;;4887560;29;20312;-81
2023/07/23 06:43:02;;;;;;;3.17;1.98;;;;;;;;;;4876918;29;20030;-83
2023/07/23 06:45:28;;;;;;;4.05;2.20;;;;;;;;;;4886878;29;20089;-82
2023/07/23 06:48:00;;;;;;;2.90;1.80;;;;;;;;;;4877785;29;20037;-86
2023/07/23 06:52:56;;;;;;;3.40;1.80;;;;;;;;;;4849085;29;20066;-90
2023/07/23 06:55:22;;;;;;;3.22;1.65;;;;;;;;;;4845647;29;20060;-89
2023/07/23 06:57:48;;;;;;;3.55;1.70;;;;;;;;;;4868329;29;20034;-88
2023/07/23 07:00:15;;;;;;;2.47;1.50;;;;;;;;;;4852482;29;20061;-88
2023/07/23 07:02:41;;;;;;;2.80;1.73;;;;;;;;;;4854202;29;20042;-88
2023/07/23 07:05:07;;;;;;;4.75;1.58;;;;;;;;;;4866399;29;20059;-88
2023/07/23 07:07:35;;;;;;;2.25;1.45;;;;;;;;;;4846716;29;20042;-86
2023/07/23 07:10:02;;;;;;;2.67;1.70;;;20.10;99.90;;;;;;4840242;29;20034;-90
2023/07/23 07:12:28;;;;;;;4.30;1.60;;;;;;;;;;4846013;29;20097;-87
2023/07/23 07:14:55;;;;;;;2.95;1.70;;;;;;;;;;4850674;29;20078;-90
2023/07/23 07:17:21;;;;;;;2.63;1.45;;;;;;;;;;4870157;29;20190;-86
2023/07/23 07:19:47;;;;;;;2.03;1.33;;;;;;;;;;4853600;29;20041;-87
2023/07/23 07:22:13;;;;;;;4.47;1.95;;;;;;;;;;4844315;29;20446;-89
2023/07/23 07:24:39;;;;;;;2.67;1.67;;;;;;;;;;4846363;29;20089;-88
2023/07/23 07:27:09;;;;;;;2.40;1.60;;;;;;;;;;4840201;29;20098;-88
2023/07/23 07:29:39;;;;;;;3.13;1.60;;;21.80;99.80;;;;;;4844149;29;20042;-89
2023/07/23 07:32:11;;;;;;;2.33;1.67;;;;;;;;;;4837950;29;20049;-88
2023/07/23 07:34:39;;;;;;;2.72;1.63;;;;;;;;;;4842531;29;20075;-88
2023/07/23 07:37:06;;;;;;;5.00;1.50;;;;;;;;;;4840109;29;20053;-89
2023/07/23 07:39:33;;;;;;;3.83;1.50;;;;;;;;;;4844147;29;20082;-85
2023/07/23 07:41:58;;;;;;;3.75;1.55;;;;;;;;;;4837540;29;20024;-88
2023/07/23 07:44:24;;;;;;;2.70;1.45;;;;;;;;;;4857084;29;20038;-88
2023/07/23 07:46:50;;;;;;;3.13;1.40;;;;;;;;;;4838867;29;20044;-88
2023/07/23 07:49:19;;;;;;;3.78;1.67;;;;;;;;;;4843311;29;20246;-88
2023/07/23 07:51:47;;;;;;;2.85;1.50;;;22.30;98.40;;;;;;4841946;29;20159;-88
2023/07/23 07:54:14;;;;;;;3.90;1.25;;;;;;;;;;4848805;29;21067;-89
2023/07/23 07:56:40;;;;;;;1.73;1.30;;;;;;;;;;4848979;29;20038;-89
2023/07/23 07:59:07;;;;;;;5.43;1.50;;;;;;;;;;4846491;29;20022;-89
2023/07/23 08:01:36;;;;;;;2.60;1.48;;;;;;;;;;4848652;29;20098;-89
2023/07/23 08:04:03;;;;;;;2.88;1.65;;;;;;;;;;4846833;29;20034;-87
2023/07/23 08:06:30;;;;;;;3.92;1.33;;;;;;;;;;4850122;29;20042;-89
2023/07/23 08:08:57;;;;;;;3.20;1.40;;;;;;;;;;4842333;29;20032;-88
2023/07/23 08:11:27;;;;;;;2.35;1.50;;;;;;;;;;4862532;29;20079;-89
2023/07/23 08:13:54;;;;;;;5.00;1.50;;;;;;;;;;4863639;29;20045;-87
2023/07/23 08:16:20;;;;;;;3.35;1.48;;;;;;;;;;4862274;29;20102;-89
2023/07/23 08:18:46;;;;;;;2.80;1.30;;;;;;;;;;4841291;29;20041;-88
2023/07/23 08:21:32;;;;;;;8.02;1.30;;;;;;;;;;4841540;29;20028;-92
2023/07/23 08:24:01;;;;;;;1.90;1.27;;;;;;;;;;4868415;29;20046;-89
2023/07/23 08:26:28;;;;;;;4.63;1.52;;;;;;;;;;4851235;29;20039;-89
2023/07/23 08:29:18;;;;;;;4.20;1.27;;;;;;;;;;4851336;29;20018;-91
2023/07/23 08:31:45;;;;;;;3.15;1.92;;;;;;;;;;4868357;29;20078;-89
2023/07/23 08:34:12;;;;;;;3.17;1.30;;;;;;;;;;4848836;29;20102;-88
2023/07/23 08:36:38;;;;;;;2.67;1.35;;;;;;;;;;4851287;29;20053;-89
2023/07/23 08:39:07;;;;;;;3.22;1.40;;;;;;;;;;4860313;29;20053;-87
2023/07/23 08:41:37;;;;;;;3.15;1.40;;;;;;;;;;4855077;29;20105;-89
2023/07/23 08:44:33;;;;;;;1.77;1.23;;;;;;;;;;4854400;29;20038;-87
2023/07/23 08:47:25;;;;;;;2.05;1.23;;;;;;;;;;4849644;29;20036;-90
2023/07/23 08:49:54;;;;;;;3.60;1.55;;;;;;;;;;4858384;29;20030;-90
2023/07/23 08:52:21;;;;;;;2.05;1.33;;;;;;;;;;4848565;29;20034;-89
2023/07/23 08:54:48;;;;;;;2.08;1.20;;;;;;;;;;4845130;29;20022;-88
2023/07/23 08:57:39;;;;;;;1.88;1.13;;;;;;;;;;4863916;29;20041;-89
2023/07/23 09:03:12;;;;;;;2.03;1.10;;;;;;;;;;4814365;29;20046;-89
2023/07/23 09:05:38;;;;;;;;;;;;;;;;;;4803833;29;20110;-90
2023/07/23 09:08:17;;;;;;;2.08;1.08;;;;;;;;;;4849535;29;19900;-88
2023/07/23 09:11:06;;;;;;;;;;;22.00;93.50;;;;;;4850250;29;20037;-89
2023/07/23 09:13:36;;;;;;;3.58;1.58;;;;;;;;;;4832615;29;20002;-90
2023/07/23 09:16:05;;;;;;;2.70;1.02;;;;;;;;;;4861837;29;20034;-88
2023/07/23 09:18:32;;;;;;;3.08;1.27;;;;;;;;;;4842670;29;20195;-89
2023/07/23 09:20:58;;;;;;;3.00;1.50;;;;;;;;;;4842709;29;20034;-90
2023/07/23 09:23:31;;;;;;;5.63;1.40;;;;;;;;;;4849036;29;20105;-88
2023/07/23 09:26:02;;;;;;;3.17;1.40;;;;;;;;;;4840552;29;20030;-89
2023/07/23 09:28:35;;;;;;;3.83;1.63;;;;;;;;;;4840665;29;20090;-88
2023/07/23 09:31:01;;;;;;;2.35;1.20;;;;;;;;;;4837898;29;20034;-89
2023/07/23 09:33:37;;;;;;;3.83;1.33;;;;;;;;;;4857885;29;20037;-89
2023/07/23 09:36:09;;;;;;;1.80;1.00;;;;;;;;;;4840321;29;20036;-90
